sensor_id;sensor_type;location;lat;lon;timestamp;P1;durP1;ratioP1;P2;durP2;ratioP2
74551;SDS011;63025;55.472;38.432;2023-05-16T00:00:19;5.25;;;2.75;;
74551;SDS011;63025;55.472;38.432;2023-05-16T00:02:45;7.60;;;2.90;;
74551;SDS011;63025;55.472;38.432;2023-05-16T00:05:12;7.93;;;2.95;;
74551;SDS011;63025;55.472;38.432;2023-05-16T00:07:41;5.05;;;2.65;;
74551;SDS011;63025;55.472;38.432;2023-05-16T00:10:08;9.13;;;2.97;;
74551;SDS011;63025;55.472;38.432;2023-05-16T00:12:35;7.20;;;3.00;;
74551;SDS011;63025;55.472;38.432;2023-05-16T00:15:02;11.43;;;2.95;;
74551;SDS011;63025;55.472;38.432;2023-05-16T00:17:29;8.02;;;3.08;;
74551;SDS011;63025;55.472;38.432;2023-05-16T00:19:56;4.45;;;3.03;;
74551;SDS011;63025;55.472;38.432;2023-05-16T00:22:26;6.60;;;2.92;;
74551;SDS011;63025;55.472;38.432;2023-05-16T00:24:52;6.70;;;3.05;;
74551;SDS011;63025;55.472;38.432;2023-05-16T00:27:18;7.93;;;3.00;;
74551;SDS011;63025;55.472;38.432;2023-05-16T00:29:44;6.75;;;3.50;;
74551;SDS011;63025;55.472;38.432;2023-05-16T00:32:10;6.25;;;4.65;;
74551;SDS011;63025;55.472;38.432;2023-05-16T00:34:35;7.82;;;3.67;;
74551;SDS011;63025;55.472;38.432;2023-05-16T00:37:01;9.02;;;6.30;;
74551;SDS011;63025;55.472;38.432;2023-05-16T00:39:27;8.77;;;6.50;;
74551;SDS011;63025;55.472;38.432;2023-05-16T00:41:55;9.43;;;5.68;;
74551;SDS011;63025;55.472;38.432;2023-05-16T00:44:22;13.05;;;6.95;;
74551;SDS011;63025;55.472;38.432;2023-05-16T00:46:48;14.20;;;5.85;;
74551;SDS011;63025;55.472;38.432;2023-05-16T00:49:14;11.98;;;6.45;;
74551;SDS011;63025;55.472;38.432;2023-05-16T00:51:40;12.88;;;6.10;;
74551;SDS011;63025;55.472;38.432;2023-05-16T00:54:06;5.80;;;3.30;;
74551;SDS011;63025;55.472;38.432;2023-05-16T00:56:32;10.13;;;4.88;;
74551;SDS011;63025;55.472;38.432;2023-05-16T00:58:58;6.75;;;3.70;;
74551;SDS011;63025;55.472;38.432;2023-05-16T01:01:25;7.25;;;4.30;;
74551;SDS011;63025;55.472;38.432;2023-05-16T01:03:52;8.02;;;4.85;;
74551;SDS011;63025;55.472;38.432;2023-05-16T01:06:19;16.35;;;8.32;;
74551;SDS011;63025;55.472;38.432;2023-05-16T01:08:45;21.38;;;9.60;;
74551;SDS011;63025;55.472;38.432;2023-05-16T01:11:13;18.08;;;8.70;;
74551;SDS011;63025;55.472;38.432;2023-05-16T01:16:43;11.13;;;5.53;;
74551;SDS011;63025;55.472;38.432;2023-05-16T01:27:25;12.23;;;6.68;;
74551;SDS011;63025;55.472;38.432;2023-05-16T01:29:55;12.60;;;6.38;;
74551;SDS011;63025;55.472;38.432;2023-05-16T01:32:21;11.98;;;5.95;;
74551;SDS011;63025;55.472;38.432;2023-05-16T01:34:48;11.40;;;4.90;;
74551;SDS011;63025;55.472;38.432;2023-05-16T01:37:20;9.88;;;4.18;;
74551;SDS011;63025;55.472;38.432;2023-05-16T01:39:58;9.45;;;5.28;;
74551;SDS011;63025;55.472;38.432;2023-05-16T01:42:34;9.95;;;5.35;;
74551;SDS011;63025;55.472;38.432;2023-05-16T01:45:19;5.97;;;3.63;;
74551;SDS011;63025;55.472;38.432;2023-05-16T01:48:15;8.00;;;3.90;;
74551;SDS011;63025;55.472;38.432;2023-05-16T01:50:43;8.07;;;3.70;;
74551;SDS011;63025;55.472;38.432;2023-05-16T01:53:16;5.90;;;3.55;;
74551;SDS011;63025;55.472;38.432;2023-05-16T01:55:47;8.20;;;3.83;;
74551;SDS011;63025;55.472;38.432;2023-05-16T01:58:17;8.00;;;3.75;;
74551;SDS011;63025;55.472;38.432;2023-05-16T02:00:46;6.63;;;3.40;;
74551;SDS011;63025;55.472;38.432;2023-05-16T02:03:12;8.77;;;3.78;;
74551;SDS011;63025;55.472;38.432;2023-05-16T02:05:38;9.80;;;3.72;;
74551;SDS011;63025;55.472;38.432;2023-05-16T02:08:04;7.18;;;3.88;;
74551;SDS011;63025;55.472;38.432;2023-05-16T02:10:30;9.18;;;3.53;;
74551;SDS011;63025;55.472;38.432;2023-05-16T02:12:59;9.23;;;3.60;;
74551;SDS011;63025;55.472;38.432;2023-05-16T02:15:25;7.85;;;3.60;;
74551;SDS011;63025;55.472;38.432;2023-05-16T02:17:51;8.95;;;3.53;;
74551;SDS011;63025;55.472;38.432;2023-05-16T02:20:17;6.95;;;3.22;;
74551;SDS011;63025;55.472;38.432;2023-05-16T02:22:43;6.18;;;3.72;;
74551;SDS011;63025;55.472;38.432;2023-05-16T02:25:12;8.85;;;3.30;;
74551;SDS011;63025;55.472;38.432;2023-05-16T02:27:40;6.65;;;3.72;;
74551;SDS011;63025;55.472;38.432;2023-05-16T02:30:08;7.00;;;3.60;;
74551;SDS011;63025;55.472;38.432;2023-05-16T02:32:39;6.57;;;3.45;;
74551;SDS011;63025;55.472;38.432;2023-05-16T02:35:07;7.45;;;4.05;;
74551;SDS011;63025;55.472;38.432;2023-05-16T02:37:33;7.88;;;3.63;;
74551;SDS011;63025;55.472;38.432;2023-05-16T02:39:58;8.45;;;4.07;;
74551;SDS011;63025;55.472;38.432;2023-05-16T02:42:24;8.95;;;4.60;;
74551;SDS011;63025;55.472;38.432;2023-05-16T02:44:51;9.20;;;5.07;;
74551;SDS011;63025;55.472;38.432;2023-05-16T02:47:17;9.32;;;4.55;;
74551;SDS011;63025;55.472;38.432;2023-05-16T02:49:43;10.18;;;4.85;;
74551;SDS011;63025;55.472;38.432;2023-05-16T02:52:09;8.70;;;5.13;;
74551;SDS011;63025;55.472;38.432;2023-05-16T02:54:35;12.10;;;5.20;;
74551;SDS011;63025;55.472;38.432;2023-05-16T02:57:00;10.57;;;4.88;;
74551;SDS011;63025;55.472;38.432;2023-05-16T02:59:26;8.82;;;3.95;;
74551;SDS011;63025;55.472;38.432;2023-05-16T03:01:52;8.10;;;3.78;;
74551;SDS011;63025;55.472;38.432;2023-05-16T03:04:18;11.82;;;3.85;;
74551;SDS011;63025;55.472;38.432;2023-05-16T03:06:43;9.02;;;3.72;;
74551;SDS011;63025;55.472;38.432;2023-05-16T03:09:10;9.27;;;3.65;;
74551;SDS011;63025;55.472;38.432;2023-05-16T03:11:35;8.20;;;3.95;;
74551;SDS011;63025;55.472;38.432;2023-05-16T03:14:01;10.60;;;3.80;;
74551;SDS011;63025;55.472;38.432;2023-05-16T03:16:27;8.38;;;3.70;;
74551;SDS011;63025;55.472;38.432;2023-05-16T03:18:53;9.90;;;3.65;;
74551;SDS011;63025;55.472;38.432;2023-05-16T03:21:18;7.70;;;3.95;;
74551;SDS011;63025;55.472;38.432;2023-05-16T03:23:44;8.38;;;3.75;;
74551;SDS011;63025;55.472;38.432;2023-05-16T03:26:10;9.98;;;3.47;;
74551;SDS011;63025;55.472;38.432;2023-05-16T03:28:36;9.38;;;3.97;;
74551;SDS011;63025;55.472;38.432;2023-05-16T03:31:02;8.35;;;3.63;;
74551;SDS011;63025;55.472;38.432;2023-05-16T03:33:27;8.60;;;4.00;;
74551;SDS011;63025;55.472;38.432;2023-05-16T03:35:53;8.18;;;3.90;;
74551;SDS011;63025;55.472;38.432;2023-05-16T03:38:19;8.48;;;3.25;;
74551;SDS011;63025;55.472;38.432;2023-05-16T03:40:46;7.25;;;3.17;;
74551;SDS011;63025;55.472;38.432;2023-05-16T03:43:13;7.63;;;3.42;;
74551;SDS011;63025;55.472;38.432;2023-05-16T03:45:38;5.97;;;2.85;;
74551;SDS011;63025;55.472;38.432;2023-05-16T03:48:04;6.07;;;3.05;;
74551;SDS011;63025;55.472;38.432;2023-05-16T03:50:30;7.95;;;3.17;;
74551;SDS011;63025;55.472;38.432;2023-05-16T03:52:56;6.38;;;3.33;;
74551;SDS011;63025;55.472;38.432;2023-05-16T03:55:22;8.00;;;3.08;;
74551;SDS011;63025;55.472;38.432;2023-05-16T03:57:47;6.68;;;2.63;;
74551;SDS011;63025;55.472;38.432;2023-05-16T04:00:14;6.40;;;3.00;;
74551;SDS011;63025;55.472;38.432;2023-05-16T04:02:41;6.70;;;3.05;;
74551;SDS011;63025;55.472;38.432;2023-05-16T04:05:09;7.88;;;3.03;;
74551;SDS011;63025;55.472;38.432;2023-05-16T04:07:36;6.90;;;2.65;;
74551;SDS011;63025;55.472;38.432;2023-05-16T04:10:03;4.90;;;2.75;;
74551;SDS011;63025;55.472;38.432;2023-05-16T04:12:32;6.35;;;2.80;;
74551;SDS011;63025;55.472;38.432;2023-05-16T04:14:57;4.82;;;2.60;;
74551;SDS011;63025;55.472;38.432;2023-05-16T04:17:23;7.78;;;2.70;;
74551;SDS011;63025;55.472;38.432;2023-05-16T04:19:50;5.85;;;2.70;;
74551;SDS011;63025;55.472;38.432;2023-05-16T04:22:16;6.10;;;2.10;;
74551;SDS011;63025;55.472;38.432;2023-05-16T04:24:41;4.70;;;2.08;;
74551;SDS011;63025;55.472;38.432;2023-05-16T04:27:07;4.80;;;2.15;;
74551;SDS011;63025;55.472;38.432;2023-05-16T04:29:34;8.70;;;2.13;;
74551;SDS011;63025;55.472;38.432;2023-05-16T04:32:00;4.40;;;2.10;;
74551;SDS011;63025;55.472;38.432;2023-05-16T04:34:27;4.22;;;1.95;;
74551;SDS011;63025;55.472;38.432;2023-05-16T04:36:54;3.72;;;1.77;;
74551;SDS011;63025;55.472;38.432;2023-05-16T04:39:20;4.35;;;1.92;;
74551;SDS011;63025;55.472;38.432;2023-05-16T04:41:46;5.50;;;2.00;;
74551;SDS011;63025;55.472;38.432;2023-05-16T04:44:12;3.40;;;1.55;;
74551;SDS011;63025;55.472;38.432;2023-05-16T04:46:38;5.53;;;2.00;;
74551;SDS011;63025;55.472;38.432;2023-05-16T04:49:04;6.78;;;2.00;;
74551;SDS011;63025;55.472;38.432;2023-05-16T04:51:30;4.25;;;1.70;;
74551;SDS011;63025;55.472;38.432;2023-05-16T04:53:58;6.18;;;1.75;;
74551;SDS011;63025;55.472;38.432;2023-05-16T04:56:24;5.47;;;1.85;;
74551;SDS011;63025;55.472;38.432;2023-05-16T04:58:51;3.58;;;1.45;;
74551;SDS011;63025;55.472;38.432;2023-05-16T05:01:19;5.95;;;1.60;;
74551;SDS011;63025;55.472;38.432;2023-05-16T05:03:45;5.35;;;1.88;;
74551;SDS011;63025;55.472;38.432;2023-05-16T05:06:11;3.92;;;1.70;;
74551;SDS011;63025;55.472;38.432;2023-05-16T05:08:37;5.60;;;1.92;;
74551;SDS011;63025;55.472;38.432;2023-05-16T05:11:02;5.03;;;1.50;;
74551;SDS011;63025;55.472;38.432;2023-05-16T05:13:28;4.70;;;1.70;;
74551;SDS011;63025;55.472;38.432;2023-05-16T05:15:54;2.92;;;1.50;;
74551;SDS011;63025;55.472;38.432;2023-05-16T05:18:19;5.63;;;1.77;;
74551;SDS011;63025;55.472;38.432;2023-05-16T05:20:45;10.50;;;2.80;;
74551;SDS011;63025;55.472;38.432;2023-05-16T05:23:11;6.00;;;2.95;;
74551;SDS011;63025;55.472;38.432;2023-05-16T05:25:37;8.52;;;4.38;;
74551;SDS011;63025;55.472;38.432;2023-05-16T05:28:03;11.65;;;6.90;;
74551;SDS011;63025;55.472;38.432;2023-05-16T05:30:30;18.25;;;8.18;;
74551;SDS011;63025;55.472;38.432;2023-05-16T05:32:56;16.65;;;8.30;;
74551;SDS011;63025;55.472;38.432;2023-05-16T05:35:21;12.13;;;6.95;;
74551;SDS011;63025;55.472;38.432;2023-05-16T05:37:47;8.50;;;4.25;;
74551;SDS011;63025;55.472;38.432;2023-05-16T05:40:13;8.43;;;3.88;;
74551;SDS011;63025;55.472;38.432;2023-05-16T05:42:39;9.27;;;4.85;;
74551;SDS011;63025;55.472;38.432;2023-05-16T05:45:04;9.20;;;4.47;;
74551;SDS011;63025;55.472;38.432;2023-05-16T05:47:31;9.23;;;5.07;;
74551;SDS011;63025;55.472;38.432;2023-05-16T05:49:57;13.00;;;6.22;;
74551;SDS011;63025;55.472;38.432;2023-05-16T05:52:24;11.45;;;6.03;;
74551;SDS011;63025;55.472;38.432;2023-05-16T05:54:50;11.57;;;6.05;;
74551;SDS011;63025;55.472;38.432;2023-05-16T05:57:16;9.27;;;5.53;;
74551;SDS011;63025;55.472;38.432;2023-05-16T05:59:41;16.92;;;9.95;;
74551;SDS011;63025;55.472;38.432;2023-05-16T06:02:07;21.92;;;10.38;;
74551;SDS011;63025;55.472;38.432;2023-05-16T06:04:33;14.02;;;7.30;;
74551;SDS011;63025;55.472;38.432;2023-05-16T06:06:59;16.67;;;8.77;;
74551;SDS011;63025;55.472;38.432;2023-05-16T06:09:25;23.77;;;12.60;;
74551;SDS011;63025;55.472;38.432;2023-05-16T06:11:50;16.88;;;11.05;;
74551;SDS011;63025;55.472;38.432;2023-05-16T06:14:16;9.45;;;3.80;;
74551;SDS011;63025;55.472;38.432;2023-05-16T06:16:42;8.20;;;3.55;;
74551;SDS011;63025;55.472;38.432;2023-05-16T06:19:08;13.48;;;7.47;;
74551;SDS011;63025;55.472;38.432;2023-05-16T06:21:34;15.40;;;9.05;;
74551;SDS011;63025;55.472;38.432;2023-05-16T06:24:00;15.35;;;6.30;;
74551;SDS011;63025;55.472;38.432;2023-05-16T06:26:26;16.45;;;8.95;;
74551;SDS011;63025;55.472;38.432;2023-05-16T06:28:51;5.50;;;2.90;;
74551;SDS011;63025;55.472;38.432;2023-05-16T06:31:17;4.53;;;2.00;;
74551;SDS011;63025;55.472;38.432;2023-05-16T06:33:43;5.05;;;1.95;;
74551;SDS011;63025;55.472;38.432;2023-05-16T06:36:09;16.75;;;7.25;;
74551;SDS011;63025;55.472;38.432;2023-05-16T06:38:35;15.75;;;8.10;;
74551;SDS011;63025;55.472;38.432;2023-05-16T06:41:00;9.00;;;4.20;;
74551;SDS011;63025;55.472;38.432;2023-05-16T06:43:27;7.97;;;3.38;;
74551;SDS011;63025;55.472;38.432;2023-05-16T06:45:52;6.13;;;2.70;;
74551;SDS011;63025;55.472;38.432;2023-05-16T06:48:18;6.38;;;3.65;;
74551;SDS011;63025;55.472;38.432;2023-05-16T06:50:48;4.70;;;1.67;;
74551;SDS011;63025;55.472;38.432;2023-05-16T06:53:16;11.80;;;6.25;;
74551;SDS011;63025;55.472;38.432;2023-05-16T06:55:43;4.90;;;1.90;;
74551;SDS011;63025;55.472;38.432;2023-05-16T06:58:09;4.45;;;1.30;;
74551;SDS011;63025;55.472;38.432;2023-05-16T07:00:35;5.70;;;2.10;;
74551;SDS011;63025;55.472;38.432;2023-05-16T07:03:01;5.10;;;2.13;;
74551;SDS011;63025;55.472;38.432;2023-05-16T07:05:28;3.83;;;1.30;;
74551;SDS011;63025;55.472;38.432;2023-05-16T07:07:54;5.47;;;2.15;;
74551;SDS011;63025;55.472;38.432;2023-05-16T07:10:20;14.63;;;5.30;;
74551;SDS011;63025;55.472;38.432;2023-05-16T07:12:46;8.00;;;3.95;;
74551;SDS011;63025;55.472;38.432;2023-05-16T07:15:12;11.45;;;5.50;;
74551;SDS011;63025;55.472;38.432;2023-05-16T07:17:39;8.75;;;2.90;;
74551;SDS011;63025;55.472;38.432;2023-05-16T07:20:05;8.52;;;3.70;;
74551;SDS011;63025;55.472;38.432;2023-05-16T07:22:32;7.35;;;3.70;;
74551;SDS011;63025;55.472;38.432;2023-05-16T07:24:58;6.88;;;3.42;;
74551;SDS011;63025;55.472;38.432;2023-05-16T07:27:25;6.68;;;3.53;;
74551;SDS011;63025;55.472;38.432;2023-05-16T07:29:52;8.02;;;3.95;;
74551;SDS011;63025;55.472;38.432;2023-05-16T07:32:18;7.30;;;3.80;;
74551;SDS011;63025;55.472;38.432;2023-05-16T07:34:45;8.73;;;4.63;;
74551;SDS011;63025;55.472;38.432;2023-05-16T07:37:10;6.28;;;2.22;;
74551;SDS011;63025;55.472;38.432;2023-05-16T07:39:38;6.03;;;2.70;;
74551;SDS011;63025;55.472;38.432;2023-05-16T07:42:07;4.63;;;2.28;;
74551;SDS011;63025;55.472;38.432;2023-05-16T07:44:33;10.45;;;5.05;;
74551;SDS011;63025;55.472;38.432;2023-05-16T07:47:01;4.63;;;2.10;;
74551;SDS011;63025;55.472;38.432;2023-05-16T07:49:27;5.50;;;2.58;;
74551;SDS011;63025;55.472;38.432;2023-05-16T07:51:53;7.13;;;3.40;;
74551;SDS011;63025;55.472;38.432;2023-05-16T07:54:20;6.63;;;2.30;;
74551;SDS011;63025;55.472;38.432;2023-05-16T07:56:46;5.20;;;2.33;;
74551;SDS011;63025;55.472;38.432;2023-05-16T07:59:12;5.20;;;2.40;;
74551;SDS011;63025;55.472;38.432;2023-05-16T08:01:38;6.93;;;2.75;;
74551;SDS011;63025;55.472;38.432;2023-05-16T08:04:05;9.02;;;4.40;;
74551;SDS011;63025;55.472;38.432;2023-05-16T08:06:31;11.30;;;3.80;;
74551;SDS011;63025;55.472;38.432;2023-05-16T08:08:56;9.63;;;2.90;;
74551;SDS011;63025;55.472;38.432;2023-05-16T08:11:22;7.18;;;2.67;;
74551;SDS011;63025;55.472;38.432;2023-05-16T08:13:48;4.90;;;2.17;;
74551;SDS011;63025;55.472;38.432;2023-05-16T08:16:14;4.45;;;2.47;;
74551;SDS011;63025;55.472;38.432;2023-05-16T08:18:40;4.97;;;2.30;;
74551;SDS011;63025;55.472;38.432;2023-05-16T08:21:07;4.57;;;2.13;;
74551;SDS011;63025;55.472;38.432;2023-05-16T08:23:33;4.85;;;2.10;;
74551;SDS011;63025;55.472;38.432;2023-05-16T08:26:00;5.40;;;3.00;;
74551;SDS011;63025;55.472;38.432;2023-05-16T08:28:28;4.85;;;2.25;;
74551;SDS011;63025;55.472;38.432;2023-05-16T08:30:54;3.65;;;1.70;;
74551;SDS011;63025;55.472;38.432;2023-05-16T08:33:21;4.80;;;2.15;;
74551;SDS011;63025;55.472;38.432;2023-05-16T08:35:49;4.15;;;2.13;;
74551;SDS011;63025;55.472;38.432;2023-05-16T08:38:18;5.82;;;1.80;;
74551;SDS011;63025;55.472;38.432;2023-05-16T08:40:45;4.28;;;1.50;;
74551;SDS011;63025;55.472;38.432;2023-05-16T08:43:11;3.85;;;1.60;;
74551;SDS011;63025;55.472;38.432;2023-05-16T08:45:39;6.05;;;1.85;;
74551;SDS011;63025;55.472;38.432;2023-05-16T08:48:05;4.75;;;1.95;;
74551;SDS011;63025;55.472;38.432;2023-05-16T08:50:32;8.60;;;4.20;;
74551;SDS011;63025;55.472;38.432;2023-05-16T08:53:02;3.20;;;1.45;;
74551;SDS011;63025;55.472;38.432;2023-05-16T08:55:31;4.05;;;1.83;;
74551;SDS011;63025;55.472;38.432;2023-05-16T08:57:58;6.60;;;3.55;;
74551;SDS011;63025;55.472;38.432;2023-05-16T09:00:25;7.90;;;2.80;;
74551;SDS011;63025;55.472;38.432;2023-05-16T09:02:51;5.00;;;1.98;;
74551;SDS011;63025;55.472;38.432;2023-05-16T09:05:18;3.03;;;1.20;;
74551;SDS011;63025;55.472;38.432;2023-05-16T09:07:44;2.42;;;1.20;;
74551;SDS011;63025;55.472;38.432;2023-05-16T09:10:11;2.50;;;1.30;;
74551;SDS011;63025;55.472;38.432;2023-05-16T09:12:40;2.55;;;1.27;;
74551;SDS011;63025;55.472;38.432;2023-05-16T09:15:08;2.85;;;1.05;;
74551;SDS011;63025;55.472;38.432;2023-05-16T09:17:44;6.20;;;1.35;;
74551;SDS011;63025;55.472;38.432;2023-05-16T09:20:17;3.33;;;1.20;;
74551;SDS011;63025;55.472;38.432;2023-05-16T09:22:51;4.25;;;1.20;;
74551;SDS011;63025;55.472;38.432;2023-05-16T09:25:19;2.65;;;1.38;;
74551;SDS011;63025;55.472;38.432;2023-05-16T09:27:46;2.92;;;1.27;;
74551;SDS011;63025;55.472;38.432;2023-05-16T09:30:13;2.47;;;1.38;;
74551;SDS011;63025;55.472;38.432;2023-05-16T09:32:43;3.35;;;1.30;;
74551;SDS011;63025;55.472;38.432;2023-05-16T09:35:13;4.65;;;1.30;;
74551;SDS011;63025;55.472;38.432;2023-05-16T09:37:44;3.38;;;1.63;;
74551;SDS011;63025;55.472;38.432;2023-05-16T09:40:11;3.58;;;1.30;;
74551;SDS011;63025;55.472;38.432;2023-05-16T09:42:37;4.32;;;1.10;;
74551;SDS011;63025;55.472;38.432;2023-05-16T09:45:03;3.97;;;1.10;;
74551;SDS011;63025;55.472;38.432;2023-05-16T09:47:30;2.47;;;1.08;;
74551;SDS011;63025;55.472;38.432;2023-05-16T09:49:57;1.60;;;0.90;;
74551;SDS011;63025;55.472;38.432;2023-05-16T09:52:26;3.83;;;1.10;;
74551;SDS011;63025;55.472;38.432;2023-05-16T09:54:52;4.28;;;1.80;;
74551;SDS011;63025;55.472;38.432;2023-05-16T09:57:19;2.03;;;1.10;;
74551;SDS011;63025;55.472;38.432;2023-05-16T09:59:46;3.20;;;1.10;;
74551;SDS011;63025;55.472;38.432;2023-05-16T10:02:13;7.65;;;4.00;;
74551;SDS011;63025;55.472;38.432;2023-05-16T10:04:39;4.00;;;2.15;;
74551;SDS011;63025;55.472;38.432;2023-05-16T10:07:06;4.40;;;2.85;;
74551;SDS011;63025;55.472;38.432;2023-05-16T10:09:34;4.00;;;1.50;;
74551;SDS011;63025;55.472;38.432;2023-05-16T10:12:02;2.65;;;1.63;;
74551;SDS011;63025;55.472;38.432;2023-05-16T10:14:33;5.57;;;1.60;;
74551;SDS011;63025;55.472;38.432;2023-05-16T10:17:02;4.97;;;1.10;;
74551;SDS011;63025;55.472;38.432;2023-05-16T10:19:30;1.65;;;0.95;;
74551;SDS011;63025;55.472;38.432;2023-05-16T10:21:57;4.07;;;1.50;;
74551;SDS011;63025;55.472;38.432;2023-05-16T10:24:28;4.35;;;1.75;;
74551;SDS011;63025;55.472;38.432;2023-05-16T10:26:58;4.03;;;1.50;;
74551;SDS011;63025;55.472;38.432;2023-05-16T10:29:24;4.43;;;1.20;;
74551;SDS011;63025;55.472;38.432;2023-05-16T10:31:51;4.80;;;1.50;;
74551;SDS011;63025;55.472;38.432;2023-05-16T10:34:17;5.85;;;1.10;;
74551;SDS011;63025;55.472;38.432;2023-05-16T10:36:43;3.28;;;1.02;;
74551;SDS011;63025;55.472;38.432;2023-05-16T10:39:11;3.03;;;1.15;;
74551;SDS011;63025;55.472;38.432;2023-05-16T10:41:37;3.33;;;1.42;;
74551;SDS011;63025;55.472;38.432;2023-05-16T10:44:06;5.10;;;1.42;;
74551;SDS011;63025;55.472;38.432;2023-05-16T10:46:40;3.60;;;1.23;;
74551;SDS011;63025;55.472;38.432;2023-05-16T10:49:22;2.65;;;1.23;;
74551;SDS011;63025;55.472;38.432;2023-05-16T10:54:35;3.20;;;0.98;;
74551;SDS011;63025;55.472;38.432;2023-05-16T10:57:06;3.03;;;1.00;;
74551;SDS011;63025;55.472;38.432;2023-05-16T10:59:41;2.65;;;1.10;;
74551;SDS011;63025;55.472;38.432;2023-05-16T11:02:27;2.00;;;0.90;;
74551;SDS011;63025;55.472;38.432;2023-05-16T11:04:58;2.13;;;1.02;;
74551;SDS011;63025;55.472;38.432;2023-05-16T11:07:29;2.10;;;1.10;;
74551;SDS011;63025;55.472;38.432;2023-05-16T11:12:43;3.45;;;1.10;;
74551;SDS011;63025;55.472;38.432;2023-05-16T11:20:23;4.00;;;1.30;;
74551;SDS011;63025;55.472;38.432;2023-05-16T11:25:42;3.88;;;1.23;;
74551;SDS011;63025;55.472;38.432;2023-05-16T11:28:11;2.63;;;1.27;;
74551;SDS011;63025;55.472;38.432;2023-05-16T11:30:42;4.88;;;1.00;;
74551;SDS011;63025;55.472;38.432;2023-05-16T11:33:10;2.22;;;1.35;;
74551;SDS011;63025;55.472;38.432;2023-05-16T11:35:37;1.55;;;0.90;;
74551;SDS011;63025;55.472;38.432;2023-05-16T11:38:03;3.95;;;1.30;;
74551;SDS011;63025;55.472;38.432;2023-05-16T11:40:29;2.28;;;1.30;;
74551;SDS011;63025;55.472;38.432;2023-05-16T11:42:58;3.10;;;1.10;;
74551;SDS011;63025;55.472;38.432;2023-05-16T11:45:28;2.10;;;1.38;;
74551;SDS011;63025;55.472;38.432;2023-05-16T11:47:54;3.15;;;1.40;;
74551;SDS011;63025;55.472;38.432;2023-05-16T11:50:26;2.65;;;1.60;;
74551;SDS011;63025;55.472;38.432;2023-05-16T11:52:52;3.85;;;1.40;;
74551;SDS011;63025;55.472;38.432;2023-05-16T11:55:22;2.42;;;1.40;;
74551;SDS011;63025;55.472;38.432;2023-05-16T11:57:50;4.63;;;1.42;;
74551;SDS011;63025;55.472;38.432;2023-05-16T12:00:17;3.60;;;1.40;;
74551;SDS011;63025;55.472;38.432;2023-05-16T12:02:45;2.85;;;1.50;;
74551;SDS011;63025;55.472;38.432;2023-05-16T12:05:12;2.85;;;1.42;;
74551;SDS011;63025;55.472;38.432;2023-05-16T12:07:38;3.70;;;1.50;;
74551;SDS011;63025;55.472;38.432;2023-05-16T12:10:08;3.83;;;1.60;;
74551;SDS011;63025;55.472;38.432;2023-05-16T12:12:35;5.90;;;2.13;;
74551;SDS011;63025;55.472;38.432;2023-05-16T12:15:04;3.67;;;2.28;;
74551;SDS011;63025;55.472;38.432;2023-05-16T12:17:32;7.68;;;2.30;;
74551;SDS011;63025;55.472;38.432;2023-05-16T12:19:58;4.22;;;1.80;;
74551;SDS011;63025;55.472;38.432;2023-05-16T12:22:24;3.05;;;1.77;;
74551;SDS011;63025;55.472;38.432;2023-05-16T12:24:50;3.85;;;2.10;;
74551;SDS011;63025;55.472;38.432;2023-05-16T12:27:25;3.40;;;1.80;;
74551;SDS011;63025;55.472;38.432;2023-05-16T12:29:52;3.08;;;1.98;;
74551;SDS011;63025;55.472;38.432;2023-05-16T12:32:21;3.22;;;1.80;;
74551;SDS011;63025;55.472;38.432;2023-05-16T12:34:50;3.63;;;1.75;;
74551;SDS011;63025;55.472;38.432;2023-05-16T12:37:16;3.17;;;1.70;;
74551;SDS011;63025;55.472;38.432;2023-05-16T12:39:42;4.30;;;1.80;;
74551;SDS011;63025;55.472;38.432;2023-05-16T12:42:11;2.63;;;1.48;;
74551;SDS011;63025;55.472;38.432;2023-05-16T12:44:38;2.95;;;1.58;;
74551;SDS011;63025;55.472;38.432;2023-05-16T12:47:09;3.30;;;1.50;;
74551;SDS011;63025;55.472;38.432;2023-05-16T12:49:42;5.38;;;1.50;;
74551;SDS011;63025;55.472;38.432;2023-05-16T12:52:11;2.60;;;1.30;;
74551;SDS011;63025;55.472;38.432;2023-05-16T12:54:43;4.95;;;1.33;;
74551;SDS011;63025;55.472;38.432;2023-05-16T12:57:09;3.30;;;1.33;;
74551;SDS011;63025;55.472;38.432;2023-05-16T12:59:35;2.53;;;1.30;;
74551;SDS011;63025;55.472;38.432;2023-05-16T13:02:01;2.10;;;1.10;;
74551;SDS011;63025;55.472;38.432;2023-05-16T13:04:28;2.03;;;1.25;;
74551;SDS011;63025;55.472;38.432;2023-05-16T13:06:54;5.88;;;1.80;;
74551;SDS011;63025;55.472;38.432;2023-05-16T13:09:21;7.93;;;1.40;;
74551;SDS011;63025;55.472;38.432;2023-05-16T13:11:48;4.05;;;1.58;;
74551;SDS011;63025;55.472;38.432;2023-05-16T13:14:15;4.00;;;1.50;;
74551;SDS011;63025;55.472;38.432;2023-05-16T13:16:42;3.90;;;1.60;;
74551;SDS011;63025;55.472;38.432;2023-05-16T13:19:09;3.05;;;1.50;;
74551;SDS011;63025;55.472;38.432;2023-05-16T13:21:35;2.00;;;1.25;;
74551;SDS011;63025;55.472;38.432;2023-05-16T13:24:01;4.53;;;1.70;;
74551;SDS011;63025;55.472;38.432;2023-05-16T13:26:27;2.95;;;1.70;;
74551;SDS011;63025;55.472;38.432;2023-05-16T13:28:52;5.88;;;1.52;;
74551;SDS011;63025;55.472;38.432;2023-05-16T13:31:19;4.65;;;1.50;;
74551;SDS011;63025;55.472;38.432;2023-05-16T13:33:47;4.38;;;1.50;;
74551;SDS011;63025;55.472;38.432;2023-05-16T13:36:13;4.40;;;1.55;;
74551;SDS011;63025;55.472;38.432;2023-05-16T13:38:39;5.32;;;1.73;;
74551;SDS011;63025;55.472;38.432;2023-05-16T13:41:06;7.72;;;1.70;;
74551;SDS011;63025;55.472;38.432;2023-05-16T13:43:32;3.67;;;1.60;;
74551;SDS011;63025;55.472;38.432;2023-05-16T13:45:58;3.08;;;1.27;;
74551;SDS011;63025;55.472;38.432;2023-05-16T13:48:24;3.97;;;1.50;;
74551;SDS011;63025;55.472;38.432;2023-05-16T13:50:50;2.33;;;1.35;;
74551;SDS011;63025;55.472;38.432;2023-05-16T13:53:18;4.25;;;1.40;;
74551;SDS011;63025;55.472;38.432;2023-05-16T13:55:44;2.70;;;1.50;;
74551;SDS011;63025;55.472;38.432;2023-05-16T13:58:10;3.60;;;1.30;;
74551;SDS011;63025;55.472;38.432;2023-05-16T14:00:36;4.35;;;1.42;;
74551;SDS011;63025;55.472;38.432;2023-05-16T14:03:02;3.88;;;1.20;;
74551;SDS011;63025;55.472;38.432;2023-05-16T14:05:28;1.95;;;0.90;;
74551;SDS011;63025;55.472;38.432;2023-05-16T14:07:53;2.88;;;1.30;;
74551;SDS011;63025;55.472;38.432;2023-05-16T14:10:19;5.43;;;1.52;;
74551;SDS011;63025;55.472;38.432;2023-05-16T14:12:45;3.53;;;1.35;;
74551;SDS011;63025;55.472;38.432;2023-05-16T14:15:11;4.05;;;1.63;;
74551;SDS011;63025;55.472;38.432;2023-05-16T14:17:37;2.50;;;1.40;;
74551;SDS011;63025;55.472;38.432;2023-05-16T14:20:03;5.43;;;1.60;;
74551;SDS011;63025;55.472;38.432;2023-05-16T14:22:35;3.42;;;1.45;;
74551;SDS011;63025;55.472;38.432;2023-05-16T14:25:01;6.88;;;2.00;;
74551;SDS011;63025;55.472;38.432;2023-05-16T14:27:29;2.80;;;1.23;;
74551;SDS011;63025;55.472;38.432;2023-05-16T14:29:55;2.97;;;1.40;;
74551;SDS011;63025;55.472;38.432;2023-05-16T14:32:22;2.80;;;1.40;;
74551;SDS011;63025;55.472;38.432;2023-05-16T14:34:48;3.80;;;1.42;;
74551;SDS011;63025;55.472;38.432;2023-05-16T14:37:14;2.83;;;1.90;;
74551;SDS011;63025;55.472;38.432;2023-05-16T14:39:42;3.67;;;1.52;;
74551;SDS011;63025;55.472;38.432;2023-05-16T14:42:11;3.90;;;1.50;;
74551;SDS011;63025;55.472;38.432;2023-05-16T14:44:37;3.53;;;1.40;;
74551;SDS011;63025;55.472;38.432;2023-05-16T14:47:03;4.88;;;1.48;;
74551;SDS011;63025;55.472;38.432;2023-05-16T14:49:29;2.97;;;1.90;;
74551;SDS011;63025;55.472;38.432;2023-05-16T14:51:55;2.90;;;1.52;;
74551;SDS011;63025;55.472;38.432;2023-05-16T14:54:21;4.38;;;2.38;;
74551;SDS011;63025;55.472;38.432;2023-05-16T14:56:47;5.32;;;2.40;;